Latest Coastal Weather Observations for Whyalla

IDS60701

Issued at 8:35 pm CST Tuesday 30 September 2014 (issued every 10 minutes, with the page automatically refreshed every 10 minutes)

About coastal observations | Map of coastal stations | Coastal observations for SA | Marine services | Other Formats
Station Details ID: 018120 Name: WHYALLA AERO Lat: -33.05 Lon: 137.52 Height: 6.5 m
Data from the previous 72 hours. | See also: Recent months at Whyalla
Date/Time
CST
Temp

°C
Wind Pressure Rain
since 9am
mm
Weather Cloud Vis
km
Sea
Height
m
Swell
Dir
 
Speed
knots
Gust
knots
hPa Trend Height
m
Period
s
Dir
30/08:30pm 15.5 SSW 14 18 1022.3 - 0.0 - - 10 - - - -
30/08:00pm 15.8 S 15 19 1022.0 - 0.0 - - 10 - - - -
30/07:30pm 15.9 S 18 23 1021.2 - 0.0 - - 10 - - - -
30/07:00pm 16.1 S 19 25 1020.4 - 0.0 - - 10 - - - -
30/06:30pm 16.4 S 19 29 1019.5 - 0.0 - - 10 - - - -
30/06:22pm 16.5 S 19 29 1019.3 - 0.0 - - 10 - - - -
30/06:00pm 16.6 S 20 28 1018.8 - 0.0 - - 10 - - - -
30/05:40pm 16.9 S 21 31 1018.3 - 0.0 - - 10 - - - -
30/05:30pm 17.0 S 21 27 1018.1 - 0.0 - - 10 - - - -
30/05:00pm 18.1 S 23 33 1017.3 - 0.0 - - 10 - - - -
30/04:30pm 19.1 S 23 33 1016.5 - 0.0 - - 10 - - - -
30/04:19pm 20.2 S 21 33 1016.2 - 0.0 - - 10 - - - -
30/04:00pm 22.3 S 17 21 1016.1 - 0.0 - - 10 - - - -
30/03:30pm 26.7 SW 10 19 1015.7 - 0.0 - - 10 - - - -
30/03:00pm 21.9 SE 10 15 1015.8 - 0.0 - - 10 - - - -
30/02:50pm 23.8 WSW 15 23 1015.4 - 0.0 - - 10 - - - -
30/02:39pm 27.2 W 20 31 1015.3 - 0.0 - Partly cloudy 10 - - - -
30/02:30pm 27.5 W 20 28 1015.5 - 0.0 - Partly cloudy 10 - - - -
30/02:24pm 27.1 W 16 26 1015.4 - 0.0 - Partly cloudy 10 - - - -
30/02:21pm 26.2 W 14 20 1015.6 - 0.0 - Partly cloudy 10 - - - -
30/02:13pm 21.2 SSE 11 17 1015.8 - 0.0 - Partly cloudy 10 - - - -
30/02:00pm 26.6 SSW 13 21 1015.8 - 0.0 - - 10 - - - -
30/01:47pm 26.1 WSW 17 27 1015.7 - 0.0 - Partly cloudy 10 - - - -
30/01:30pm 27.8 W 21 29 1015.5 - 0.0 - Partly cloudy 10 - - - -
30/01:10pm 27.4 WSW 17 27 1015.7 - 0.0 - - 10 - - - -
30/01:00pm 27.7 W 18 27 1015.7 - 0.0 - Partly cloudy 10 - - - -
30/12:30pm 27.6 W 17 30 1015.6 - 0.0 - - 10 - - - -
30/12:10pm 27.3 W 17 27 1015.7 - 0.0 - - 10 - - - -
30/12:00pm 27.2 W 18 26 1015.7 - 0.0 - - 10 - - - -
30/11:30am 26.5 W 19 25 1015.8 - 0.0 - - 10 - - - -
30/11:00am 25.9 W 15 25 1015.8 - 0.0 - - 10 - - - -
30/10:59am 26.4 W 15 25 1015.8 - 0.0 - - 10 - - - -
30/10:30am 25.0 W 18 26 1016.1 - 0.0 - - 10 - - - -
30/10:00am 25.2 W 15 19 1016.3 - 0.0 - - 10 - - - -
30/09:30am 24.0 W 15 21 1016.3 - 0.0 - - 10 - - - -
30/09:00am 23.4 W 14 19 1016.1 - 0.0 - - 10 - - - -
30/08:30am 22.4 W 12 19 1015.5 - 0.0 - - 10 - - - -
30/08:00am 20.5 WNW 10 13 1015.6 - 0.0 - - 10 - - - -
30/07:30am 18.4 WNW 7 10 1015.7 - 0.0 - - 10 - - - -
30/07:00am 13.4 NW 6 8 1015.2 - 0.0 - - 10 - - - -
30/06:30am 10.5 NNW 7 8 1014.7 - 0.0 - - 10 - - - -
30/06:00am 9.0 NNW 7 7 1014.3 - 0.0 - - 10 - - - -
30/05:30am 10.0 NW 8 9 1013.7 - 0.0 - - 10 - - - -
30/05:00am 8.4 NW 6 7 1013.3 - 0.0 - - 10 - - - -
30/04:30am 8.9 NW 7 8 1012.8 - 0.0 - - 10 - - - -
30/04:00am 8.7 NW 6 7 1012.9 - 0.0 - - 10 - - - -
30/03:30am 9.0 NW 5 7 1012.8 - 0.0 - - 10 - - - -
30/03:00am 9.4 NW 6 7 1013.1 - 0.0 - - 10 - - - -
30/02:30am 9.2 NW 6 7 1013.3 - 0.0 - - 10 - - - -
30/02:00am 9.2 NW 5 6 1013.7 - 0.0 - - 10 - - - -
30/01:30am 9.8 NNW 6 6 1014.2 - 0.0 - - 10 - - - -
30/01:00am 10.3 NW 5 6 1014.8 - 0.0 - - 10 - - - -
30/12:30am 10.3 NW 5 7 1015.0 - 0.0 - - 10 - - - -
30/12:00am 10.7 N 4 5 1014.9 - 0.0 - - 10 - - - -
 
Date/Time
CST
Temp

°C
Wind Pressure Rain
since 9am
mm
Weather Cloud Vis
km
Sea
Height
m
Swell
Dir
 
Speed
knots
Gust
knots
hPa Trend Height
m
Period
s
Dir
29/11:30pm 12.1 NNW 4 5 1015.1 - 0.0 - - 10 - - - -
29/11:00pm 12.5 NNW 5 5 1015.3 - 0.0 - - 10 - - - -
29/10:30pm 13.6 NNW 3 4 1015.4 - 0.0 - - 10 - - - -
29/10:00pm 14.5 W 4 4 1015.2 - 0.0 - - 10 - - - -
29/09:30pm 15.3 SW 5 5 1015.1 - 0.0 - - 10 - - - -
29/09:00pm 16.2 SSW 4 5 1015.0 - 0.0 - - 10 - - - -
29/08:30pm 16.7 S 5 7 1014.9 - 0.0 - - 10 - - - -
29/08:00pm 18.1 SSW 9 11 1014.6 - 0.0 - - 10 - - - -
29/07:30pm 19.5 SSW 8 10 1014.1 - 0.0 - - 10 - - - -
29/07:00pm 21.0 SSW 9 11 1013.6 - 0.0 - - 10 - - - -
29/06:30pm 20.7 SSW 2 5 1013.0 - 0.0 - - 10 - - - -
29/06:00pm 21.4 ESE 5 8 1012.6 - 0.0 - - 10 - - - -
29/05:30pm 22.5 ESE 7 12 1012.2 - 0.0 - - 10 - - - -
29/05:00pm 22.9 E 9 13 1011.8 - 0.0 - - 10 - - - -
29/04:30pm 22.7 E 10 13 1011.8 - 0.0 - - 10 - - - -
29/04:00pm 22.8 E 11 15 1011.9 - 0.0 - - 10 - - - -
29/03:30pm 23.3 E 13 18 1012.0 - 0.0 - - 10 - - - -
29/03:00pm 24.0 E 10 17 1012.2 - 0.0 - - 10 - - - -
29/02:30pm 23.7 E 11 15 1012.4 - 0.0 - - 10 - - - -
29/02:00pm 23.0 E 12 18 1012.9 - 0.0 - - 10 - - - -
29/01:30pm 23.0 E 11 16 1013.6 - 0.0 - - 10 - - - -
29/01:00pm 21.9 E 11 16 1014.0 - 0.0 - - 10 - - - -
29/12:30pm 21.1 E 10 15 1014.5 - 0.0 - - 10 - - - -
29/12:00pm 20.2 E 12 15 1015.0 - 0.0 - - 10 - - - -
29/11:30am 19.7 E 10 14 1015.5 - 0.0 - - 10 - - - -
29/11:00am 19.4 ESE 10 13 1016.1 - 0.0 - - 10 - - - -
29/10:30am 18.4 E 10 14 1016.4 - 0.0 - - 10 - - - -
29/10:00am 18.7 ESE 7 11 1016.8 - 0.0 - Partly cloudy 10 - - - -
29/09:30am 18.1 NNE 3 6 1016.9 - 0.0 - - 10 - - - -
29/09:00am 17.3 NE 2 6 1017.2 - 0.0 - - 10 - - - -
29/08:30am 16.2 NNW 3 5 1017.4 - 0.0 - - 10 - - - -
29/08:00am 15.8 NNW 8 11 1017.4 - 0.0 - - 10 - - - -
29/07:30am 14.4 NNW 9 11 1017.3 - 0.0 - - 10 - - - -
29/07:00am 12.3 NNW 7 8 1017.0 - 0.0 - - 10 - - - -
29/06:30am 8.7 NNW 7 8 1016.5 - 0.0 - - 10 - - - -
29/06:00am 7.1 NNW 6 8 1016.1 - 0.0 - - 10 - - - -
29/05:30am 6.6 NW 4 5 1015.5 - 0.0 - - 10 - - - -
29/05:00am 7.3 NNW 4 4 1015.3 - 0.0 - - 10 - - - -
29/04:30am 8.0 NNW 3 4 1015.0 - 0.0 - - 10 - - - -
29/04:00am 10.2 N 5 6 1014.9 - 0.0 - - 10 - - - -
29/03:30am 8.2 NW 5 7 1014.9 - 0.0 - - 10 - - - -
29/03:00am 8.6 WNW 4 6 1015.0 - 0.0 - - 10 - - - -
29/02:30am 9.3 WNW 3 7 1015.5 - 0.0 - - 10 - - - -
29/02:00am 8.8 W 6 8 1015.6 - 0.0 - - 10 - - - -
29/01:30am 10.2 WSW 3 6 1015.6 - 0.0 - - 10 - - - -
29/01:00am 11.4 CALM 0 0 1016.0 - 0.0 - - 10 - - - -
29/12:30am 11.5 SW 6 7 1016.1 - 0.0 - - 10 - - - -
29/12:00am 12.2 SW 6 7 1016.3 - 0.0 - - 10 - - - -
 
Date/Time
CST
Temp

°C
Wind Pressure Rain
since 9am
mm
Weather Cloud Vis
km
Sea
Height
m
Swell
Dir
 
Speed
knots
Gust
knots
hPa Trend Height
m
Period
s
Dir
28/11:30pm 13.3 SSW 6 7 1016.4 - 0.0 - - 10 - - - -
28/11:00pm 14.3 SSW 7 10 1016.4 - 0.0 - - 10 - - - -
28/10:30pm 15.2 S 6 9 1016.3 - 0.0 - - 10 - - - -
28/10:00pm 16.7 S 9 13 1016.2 - 0.0 - - 10 - - - -
28/09:30pm 17.7 S 7 12 1016.0 - 0.0 - - 10 - - - -
28/09:00pm 18.8 WSW 13 18 1015.2 - 0.0 - - 10 - - - -
28/08:30pm 19.8 WSW 14 20 1014.3 - 0.0 - - 10 - - - -
28/08:00pm 20.7 WSW 12 19 1013.6 - 0.0 - - 10 - - - -
28/07:30pm 18.2 S 3 6 1012.8 - 0.0 - - 10 - - - -
28/07:00pm 18.0 S 9 13 1011.7 - 0.0 - - 10 - - - -
28/06:30pm 17.9 S 13 18 1010.7 - 0.0 - - 10 - - - -
28/06:00pm 18.4 S 14 19 1010.1 - 0.0 - - 10 - - - -
28/05:30pm 19.0 S 18 26 1009.2 - 0.0 - - 10 - - - -
28/05:00pm 20.6 S 18 27 1008.2 - 0.0 - - 10 - - - -
28/04:57pm 21.4 S 17 27 1008.0 - 0.0 - - 10 - - - -
28/04:50pm 24.7 S 19 24 1007.8 - 0.0 - - 10 - - - -
28/04:30pm 33.0 WNW 18 24 1006.8 - 0.0 - - 10 - - - -
28/04:00pm 33.3 WNW 19 25 1006.4 - 0.0 - - 10 - - - -
28/03:33pm 33.3 NW 22 32 1006.3 - 0.0 - - 10 - - - -
28/03:30pm 33.2 NW 23 32 1006.2 - 0.0 - - 10 - - - -
28/03:29pm 33.3 NNW 22 32 1006.2 - 0.0 - - 10 - - - -
28/03:26pm 33.6 NNW 22 27 1006.2 - 0.0 - - 10 - - - -
28/03:00pm 33.6 WNW 24 36 1006.4 - 0.0 - - 10 - - - -
28/02:30pm 33.7 NW 25 35 1006.7 - 0.0 - - 10 - - - -
28/02:00pm 33.8 NW 27 37 1006.7 - 0.0 - - 10 - - - -
28/01:32pm 33.3 WNW 28 39 1006.8 - 0.0 - - 10 - - - -
28/01:30pm 33.6 WNW 28 37 1006.9 - 0.0 - - 10 - - - -
28/01:24pm 33.2 WNW 29 37 1007.1 - 0.0 - - 10 - - - -
28/01:00pm 33.0 NNW 28 35 1007.5 - 0.0 - - 10 - - - -
28/12:30pm 32.4 NNW 27 37 1008.0 - 0.0 - - 10 - - - -
28/12:00pm 31.9 NNW 30 40 1008.4 - 0.0 - - 10 - - - -
28/11:30am 32.3 NNW 26 37 1008.5 - 0.0 - - 10 - - - -
28/11:00am 30.5 NNW 27 38 1009.1 - 0.0 - - 10 - - - -
28/10:33am 29.4 NNW 31 41 1009.4 - 0.0 - - 10 - - - -
28/10:30am 29.8 NNW 32 41 1009.5 - 0.0 - - 10 - - - -
28/10:00am 29.1 NNW 30 42 1009.5 - 0.0 - - 10 - - - -
28/09:30am 27.5 N 27 37 1010.1 - 0.0 - - 10 - - - -
28/09:00am 26.6 N 25 35 1010.6 - 0.0 - - 10 - - - -
28/08:38am 25.5 N 32 42 1010.3 - 0.0 - - 7 - - - -
28/08:37am 25.2 N 35 42 1010.3 - 0.0 - - 8 - - - -
28/08:30am 25.8 N 24 36 1009.5 - 0.0 - - 10 - - - -
28/08:00am 24.4 N 28 38 1009.3 - 0.0 - - 10 - - - -
28/07:40am 23.8 N 23 33 1009.5 - 0.0 - - 10 - - - -
28/07:30am 23.5 N 21 28 1009.4 - 0.0 - - 10 - - - -
28/07:00am 22.4 N 18 26 1009.5 - 0.0 - - 10 - - - -
28/06:30am 21.9 N 20 29 1009.7 - 0.0 - - 10 - - - -
28/06:02am 22.0 N 21 31 1009.3 - 0.0 - - 10 - - - -
28/06:00am 22.0 N 22 31 1009.4 - 0.0 - - 10 - - - -
28/05:48am 21.9 N 18 30 1009.3 - 0.0 - - 10 - - - -
28/05:30am 21.8 N 17 23 1009.5 - 0.0 - - 10 - - - -
28/05:00am 21.5 N 17 26 1009.7 - 0.0 - - 10 - - - -
28/04:30am 20.9 N 15 19 1010.2 - 0.0 - - 10 - - - -
28/04:00am 20.9 N 14 20 1010.7 - 0.0 - - 10 - - - -
28/03:30am 21.9 N 16 23 1010.8 - 0.0 - - 10 - - - -
28/03:00am 21.9 N 15 20 1010.9 - 0.0 - - 10 - - - -
28/02:30am 22.7 N 17 23 1011.6 - 0.0 - - 10 - - - -
28/02:00am 23.2 N 18 26 1012.0 - 0.0 - - 10 - - - -
28/01:42am 23.6 N 19 29 1012.4 - 0.0 - - 10 - - - -
28/01:30am 23.4 N 17 25 1012.6 - 0.0 - - 10 - - - -
28/01:07am 23.5 N 16 26 1013.0 - 0.0 - - 10 - - - -
28/01:00am 23.6 N 16 25 1013.0 - 0.0 - - 10 - - - -
28/12:30am 23.8 N 17 24 1013.1 - 0.0 - - 10 - - - -
28/12:00am 24.3 N 18 26 1013.2 - 0.0 - - 10 - - - -
 
Date/Time
CST
Temp

°C
Wind Pressure Rain
since 9am
mm
Weather Cloud Vis
km
Sea
Height
m
Swell
Dir
 
Speed
knots
Gust
knots
hPa Trend Height
m
Period
s
Dir
27/11:30pm 24.7 N 18 25 1013.2 - 0.0 - - 10 - - - -
27/11:00pm 24.6 N 17 26 1013.3 - 0.0 - - 10 - - - -
27/10:30pm 25.3 N 17 24 1013.4 - 0.0 - - 10 - - - -
27/10:00pm 25.5 N 17 24 1013.7 - 0.0 - - 10 - - - -
27/09:30pm 25.8 N 16 23 1013.7 - 0.0 - - 10 - - - -
27/09:00pm 26.2 N 14 20 1013.7 - 0.0 - - 10 - - - -

Other Formats:

Comma delimited format used in spreadsheet applications
http://www.bom.gov.au/fwo/IDS60701/IDS60701.95664.axf

JavaScript Object Notation format (JSON) in row-major order
http://www.bom.gov.au/fwo/IDS60701/IDS60701.95664.json